Time;durP1;ratioP1;P1;durP2;ratioP2;P2;SDS_P1;SDS_P2;PMS_P1;PMS_P2;Temp;Humidity;BMP_temperature;BMP_pressure;BME280_temperature;BME280_humidity;BME280_pressure;Samples;Min_cycle;Max_cycle;Signal;HPM_P1;HPM_P2
2023/07/28 00:01:29;;;;;;;;;2.50;2.00;;;;;24.01;49.90;98754.75;4973722;28;45509;-69
2023/07/28 00:03:56;;;;;;;;;1.00;1.00;;;;;24.02;49.97;98763.69;4975599;28;46309;-69
2023/07/28 00:06:21;;;;;;;;;3.80;2.20;;;;;24.01;49.84;98776.31;4975945;28;45446;-69
2023/07/28 00:08:46;;;;;;;;;4.00;2.00;;;;;23.95;50.52;98782.34;4976051;28;45424;-69
2023/07/28 00:11:14;;;;;;;;;3.00;2.75;;;;;23.95;50.24;98786.88;4975742;28;45458;-69
2023/07/28 00:13:40;;;;;;;;;2.60;2.40;;;;;23.93;49.64;98799.63;4975305;28;45575;-68
2023/07/28 00:16:06;;;;;;;;;5.20;3.20;;;;;23.91;48.97;98810.56;4975829;28;45476;-69
2023/07/28 00:18:32;;;;;;;;;3.25;3.25;;;;;23.85;48.45;98810.31;4976025;28;45455;-69
2023/07/28 00:20:57;;;;;;;;;2.25;2.00;;;;;23.76;47.82;98809.41;4974323;28;45711;-69
2023/07/28 00:23:23;;;;;;;;;3.00;3.00;;;;;23.71;48.00;98817.06;4974607;28;45485;-68
2023/07/28 00:25:48;;;;;;;;;3.00;2.00;;;;;23.68;47.83;98820.06;4975459;28;45440;-69
2023/07/28 00:28:14;;;;;;;;;3.00;3.00;;;;;23.69;48.39;98821.75;4975570;28;45918;-69
2023/07/28 00:30:39;;;;;;;;;3.00;3.00;;;;;23.71;47.66;98825.16;4975564;28;45396;-68
2023/07/28 00:33:05;;;;;;;;;3.00;3.00;;;;;23.75;48.07;98820.31;4975416;28;46683;-69
2023/07/28 00:35:31;;;;;;;;;2.25;2.25;;;;;23.75;48.13;98823.00;4975192;28;45435;-69
2023/07/28 00:37:56;;;;;;;;;5.00;3.25;;;;;23.76;47.86;98822.00;4974268;28;45522;-69
2023/07/28 00:40:22;;;;;;;;;2.50;2.50;;;;;23.74;48.21;98824.00;4974127;28;45646;-69
2023/07/28 00:42:48;;;;;;;;;2.40;2.40;;;;;23.72;48.65;98820.63;4974390;28;45485;-69
2023/07/28 00:45:13;;;;;;;;;3.50;2.75;;;;;23.69;48.66;98824.44;4967716;28;45546;-69
2023/07/28 00:47:39;;;;;;;;;3.00;3.00;;;;;23.67;50.28;98829.97;4975456;28;45584;-69
2023/07/28 00:50:06;;;;;;;;;2.20;2.00;;;;;23.66;50.40;98832.81;4975196;28;45453;-69
2023/07/28 00:52:32;;;;;;;;;3.40;2.80;;;;;23.61;50.82;98827.91;4975029;28;45593;-69
2023/07/28 00:54:57;;;;;;;;;2.00;2.00;;;;;23.58;51.24;98827.38;4975295;28;45478;-69
2023/07/28 00:57:22;;;;;;;;;3.00;2.00;;;;;23.55;51.41;98819.59;4973329;28;45870;-69
2023/07/28 00:59:48;;;;;;;;;3.00;3.00;;;;;23.53;51.71;98819.75;4975145;28;45368;-69
2023/07/28 01:02:13;;;;;;;;;2.75;2.75;;;;;23.51;51.13;98805.59;4973896;28;45872;-68
2023/07/28 01:04:40;;;;;;;;;3.25;3.25;;;;;23.48;51.70;98810.38;4975178;28;45549;-69
2023/07/28 01:07:27;;;;;;;;;3.00;2.40;;;;;23.47;51.61;98814.91;4975052;28;45446;-69
2023/07/28 01:10:05;;;;;;;;;3.00;3.00;;;;;23.40;52.07;98819.22;4974642;28;45459;-69
2023/07/28 01:12:30;;;;;;;;;2.00;2.00;;;;;23.31;51.11;98812.88;4973412;28;46766;-69
2023/07/28 01:14:56;;;;;;;;;2.00;2.00;;;;;23.22;51.10;98818.31;4973591;28;45404;-69
2023/07/28 01:17:23;;;;;;;;;3.00;2.50;;;;;23.14;52.29;98815.50;4974866;28;45375;-69
2023/07/28 01:19:50;;;;;;;;;4.00;3.00;;;;;23.08;51.00;98814.28;4972714;28;45590;-69
2023/07/28 01:22:21;;;;;;;;;5.20;3.00;;;;;23.04;51.41;98817.41;4973598;28;45552;-69
2023/07/28 01:25:00;;;;;;;;;2.40;2.20;;;;;23.02;51.87;98819.38;4973495;28;45536;-69
2023/07/28 01:27:28;;;;;;;;;3.00;3.00;;;;;23.00;51.87;98814.16;4974365;28;45446;-69
2023/07/28 01:29:53;;;;;;;;;2.00;2.00;;;;;22.98;52.30;98805.38;4974454;28;45399;-69
2023/07/28 01:32:19;;;;;;;;;2.75;2.75;;;;;22.98;52.83;98810.75;4973067;28;45427;-69
2023/07/28 01:34:45;;;;;;;;;2.00;2.00;;;;;22.96;53.16;98802.84;4974276;28;45506;-69
2023/07/28 01:37:10;;;;;;;;;2.25;2.25;;;;;22.96;53.19;98799.31;4974721;28;45420;-69
2023/07/28 01:39:35;;;;;;;;;1.00;1.00;;;;;22.94;52.90;98787.88;4974304;28;45355;-69
2023/07/28 01:42:01;;;;;;;;;3.50;3.00;;;;;22.96;53.17;98784.00;4974096;28;45627;-69
2023/07/28 01:44:26;;;;;;;;;4.25;2.25;;;;;23.00;53.33;98783.72;4966650;28;45388;-69
2023/07/28 01:46:51;;;;;;;;;1.25;1.25;;;;;22.97;53.64;98783.03;4974434;28;45446;-69
2023/07/28 01:49:17;;;;;;;;;2.00;2.00;;;;;22.87;53.80;98778.69;4974128;28;45661;-69
2023/07/28 01:51:42;;;;;;;;;4.00;2.25;;;;;22.83;53.89;98783.50;4973407;28;46013;-68
2023/07/28 01:54:08;;;;;;;;;1.75;1.25;;;;;22.81;53.42;98776.56;4973884;28;45376;-69
2023/07/28 01:56:33;;;;;;;;;2.00;2.00;;;;;22.79;53.71;98779.41;4974149;28;45447;-69
2023/07/28 01:58:58;;;;;;;;;0.00;0.00;;;;;22.77;54.02;98770.69;4973639;28;45418;-69
2023/07/28 02:01:24;;;;;;;;;2.00;2.00;;;;;22.77;53.89;98764.44;4974040;28;46103;-69
2023/07/28 02:03:49;;;;;;;;;3.00;3.00;;;;;22.73;53.47;98761.16;4974327;28;45495;-68
2023/07/28 02:06:14;;;;;;;;;2.00;2.00;;;;;22.69;53.88;98767.81;4974322;28;45576;-69
2023/07/28 02:08:39;;;;;;;;;2.00;2.00;;;;;22.66;53.93;98767.25;4974171;28;45436;-69
2023/07/28 02:11:05;;;;;;;;;3.25;2.25;;;;;22.57;54.38;98759.09;4974249;28;45454;-69
2023/07/28 02:13:30;;;;;;;;;2.00;2.00;;;;;22.51;54.71;98748.94;4973413;28;45535;-69
2023/07/28 02:15:55;;;;;;;;;2.00;2.00;;;;;22.46;54.40;98753.03;4974315;28;45425;-69
2023/07/28 02:18:21;;;;;;;;;1.75;1.75;;;;;22.44;54.25;98742.47;4970984;28;45454;-68
2023/07/28 02:20:50;;;;;;;;;4.00;3.00;;;;;22.46;54.89;98750.34;4973390;28;45423;-69
2023/07/28 02:23:15;;;;;;;;;2.00;2.00;;;;;22.41;54.77;98750.81;4974851;28;45388;-68
2023/07/28 02:25:40;;;;;;;;;2.75;2.75;;;;;22.38;56.31;98764.53;4977697;28;45406;-69
2023/07/28 02:28:08;;;;;;;;;4.50;3.00;;;;;22.28;56.10;98764.56;4977040;28;45488;-69
2023/07/28 02:30:33;;;;;;;;;5.00;4.00;;;;;22.17;55.98;98753.94;4977383;28;46560;-68
2023/07/28 02:32:58;;;;;;;;;2.00;2.00;;;;;22.05;55.33;98747.03;4977652;28;45399;-69
2023/07/28 02:35:24;;;;;;;;;4.25;2.75;;;;;21.94;56.43;98744.50;4978287;28;45361;-69
2023/07/28 02:37:49;;;;;;;;;1.00;1.00;;;;;21.88;57.47;98756.63;4977230;28;45548;-69
2023/07/28 02:40:15;;;;;;;;;3.00;3.00;;;;;21.84;56.94;98757.91;4977180;28;46462;-69
2023/07/28 02:42:40;;;;;;;;;1.00;1.00;;;;;21.81;57.45;98750.13;4976838;28;45502;-69
2023/07/28 02:45:06;;;;;;;;;3.50;3.50;;;;;21.76;58.38;98740.81;4972529;28;46086;-69
2023/07/28 02:47:31;;;;;;;;;5.00;3.50;;;;;21.73;57.71;98754.50;4976694;28;45607;-68
2023/07/28 02:49:57;;;;;;;;;4.00;4.00;;;;;21.67;57.97;98755.91;4976853;28;45446;-68
2023/07/28 02:52:22;;;;;;;;;2.50;2.50;;;;;21.62;60.49;98765.38;4976776;28;45647;-68
2023/07/28 02:54:50;;;;;;;;;3.00;3.00;;;;;21.60;59.98;98754.78;4976995;28;45406;-68
2023/07/28 02:57:15;;;;;;;;;3.00;3.00;;;;;21.59;59.47;98751.25;4976603;28;45610;-68
2023/07/28 02:59:40;;;;;;;;;4.75;3.50;;;;;21.61;62.52;98747.59;4976174;28;46173;-68
2023/07/28 03:02:06;;;;;;;;;3.00;3.00;;;;;21.62;60.41;98741.25;4975059;28;45454;-69
2023/07/28 03:04:31;;;;;;;;;3.00;3.00;;;;;21.65;61.28;98746.31;4975134;28;45396;-69
2023/07/28 03:06:56;;;;;;;;;4.00;4.00;;;;;21.70;62.02;98749.41;4974983;28;45411;-68
2023/07/28 03:09:22;;;;;;;;;4.00;4.00;;;;;21.69;61.85;98742.34;4976551;28;46602;-68
2023/07/28 03:11:47;;;;;;;;;4.75;3.00;;;;;21.70;61.65;98741.38;4975935;28;45383;-68
2023/07/28 03:14:12;;;;;;;;;4.00;4.00;;;;;21.76;60.17;98740.81;4976608;28;45421;-68
2023/07/28 03:16:38;;;;;;;;;3.50;3.50;;;;;21.80;60.98;98742.22;4976391;28;45376;-68
2023/07/28 03:19:03;;;;;;;;;4.75;4.00;;;;;21.83;61.49;98750.84;4976190;28;45475;-69
2023/07/28 03:21:31;;;;;;;;;4.00;3.00;;;;;21.84;60.85;98759.72;4975275;28;45371;-69
2023/07/28 03:23:56;;;;;;;;;4.00;4.00;;;;;21.82;62.09;98753.66;4976561;28;45445;-69
2023/07/28 03:26:22;;;;;;;;;5.25;5.00;;;;;21.83;63.78;98763.41;4975912;28;45437;-69
2023/07/28 03:28:47;;;;;;;;;4.00;3.00;;;;;21.87;62.77;98770.19;4975555;28;46238;-69
2023/07/28 03:31:12;;;;;;;;;5.00;5.00;;;;;21.91;62.40;98783.19;4976240;28;45553;-69
2023/07/28 03:33:38;;;;;;;;;4.00;3.00;;;;;21.96;61.12;98785.44;4975888;28;45517;-69
2023/07/28 03:36:03;;;;;;;;;4.50;3.50;;;;;22.02;59.29;98786.75;4975112;28;45533;-69
2023/07/28 03:38:29;;;;;;;;;4.00;4.00;;;;;22.05;58.38;98787.31;4975793;28;46485;-69
2023/07/28 03:40:54;;;;;;;;;4.00;4.00;;;;;22.09;57.94;98787.88;4975835;28;45359;-69
2023/07/28 03:43:20;;;;;;;;;4.25;4.00;;;;;22.12;57.70;98795.66;4971088;28;45585;-69
2023/07/28 03:45:46;;;;;;;;;4.20;4.20;;;;;22.15;59.62;98785.47;4973087;28;45352;-69
2023/07/28 03:48:11;;;;;;;;;4.50;4.50;;;;;22.18;61.04;98781.66;4975997;28;46456;-69
2023/07/28 03:50:36;;;;;;;;;3.00;3.00;;;;;22.23;60.47;98779.38;4975883;28;45420;-68
2023/07/28 03:53:02;;;;;;;;;4.75;4.75;;;;;22.29;59.48;98784.16;4975966;28;45443;-68
2023/07/28 03:55:27;;;;;;;;;6.25;4.75;;;;;22.37;60.04;98794.22;4976097;28;45564;-68
2023/07/28 03:57:53;;;;;;;;;4.00;4.00;;;;;22.42;59.00;98790.13;4975794;28;45410;-69
2023/07/28 04:00:18;;;;;;;;;7.00;4.00;;;;;22.48;58.94;98789.50;4973037;28;45363;-69
2023/07/28 04:02:43;;;;;;;;;4.25;4.25;;;;;22.52;58.80;98796.31;4976125;28;45653;-69
2023/07/28 04:05:09;;;;;;;;;4.00;4.00;;;;;22.56;58.96;98811.16;4975639;28;45312;-69
2023/07/28 04:07:34;;;;;;;;;4.75;4.75;;;;;22.60;58.57;98820.63;4974748;28;45418;-69
2023/07/28 04:10:00;;;;;;;;;3.25;3.25;;;;;22.63;58.50;98817.63;4975815;28;45425;-69
2023/07/28 04:12:25;;;;;;;;;5.75;4.50;;;;;22.66;58.81;98821.88;4975203;28;45711;-69
2023/07/28 04:14:51;;;;;;;;;4.00;4.00;;;;;22.66;60.48;98823.69;4975670;28;45390;-69
2023/07/28 04:17:16;;;;;;;;;4.25;4.00;;;;;22.65;60.11;98841.66;4975431;28;46475;-69
2023/07/28 04:19:41;;;;;;;;;5.50;5.00;;;;;22.67;59.92;98853.13;4975676;28;45390;-69
2023/07/28 04:22:07;;;;;;;;;4.25;4.25;;;;;22.70;59.78;98857.38;4976080;28;45410;-69
2023/07/28 04:24:32;;;;;;;;;3.00;3.00;;;;;22.71;59.66;98851.84;4975214;28;45551;-68
2023/07/28 04:26:58;;;;;;;;;5.00;3.75;;;;;22.72;59.17;98852.69;4974996;28;46625;-69
2023/07/28 04:29:23;;;;;;;;;3.25;3.25;;;;;22.71;59.10;98846.47;4975684;28;45526;-69
2023/07/28 04:31:49;;;;;;;;;4.00;4.00;;;;;22.67;58.53;98838.84;4975810;28;45438;-69
2023/07/28 04:34:14;;;;;;;;;4.25;3.00;;;;;22.61;59.89;98842.97;4975330;28;45375;-69
2023/07/28 04:36:39;;;;;;;;;2.75;1.50;;;;;22.58;60.23;98840.56;4975190;28;45832;-68
2023/07/28 04:39:05;;;;;;;;;5.00;5.00;;;;;22.56;60.35;98843.38;4975330;28;45352;-69
2023/07/28 04:41:30;;;;;;;;;3.75;3.00;;;;;22.57;60.46;98850.47;4975183;28;45770;-68
2023/07/28 04:43:56;;;;;;;;;6.75;4.00;;;;;22.55;61.44;98859.66;4966504;28;45362;-69
2023/07/28 04:46:22;;;;;;;;;4.75;4.00;;;;;22.56;61.54;98862.19;4974768;28;45436;-69
2023/07/28 04:48:47;;;;;;;;;4.75;3.50;;;;;22.57;61.63;98860.38;4974701;28;45477;-68
2023/07/28 04:51:12;;;;;;;;;6.00;4.50;;;;;22.55;61.69;98865.88;4974908;28;45415;-69
2023/07/28 04:53:38;;;;;;;;;6.00;4.50;;;;;22.53;61.49;98872.38;4974922;28;45445;-69
2023/07/28 04:56:03;;;;;;;;;4.25;4.00;;;;;22.52;61.12;98897.56;4975070;28;46264;-69
2023/07/28 04:58:29;;;;;;;;;3.75;3.00;;;;;22.50;60.97;98913.81;4974613;28;45260;-69
2023/07/28 05:00:54;;;;;;;;;4.75;4.75;;;;;22.50;61.96;98924.56;4971879;28;45404;-68
2023/07/28 05:03:20;;;;;;;;;6.75;5.00;;;;;22.48;61.62;98920.31;4974795;28;45585;-69
2023/07/28 05:05:45;;;;;;;;;4.50;4.50;;;;;22.42;63.10;98920.91;4974722;28;46533;-69
2023/07/28 05:08:11;;;;;;;;;4.00;4.00;;;;;22.37;63.30;98933.88;4974544;28;45483;-69
2023/07/28 05:10:37;;;;;;;;;3.50;3.50;;;;;22.29;63.89;98935.44;4975161;28;45447;-66
2023/07/28 05:13:05;;;;;;;;;5.00;5.00;;;;;22.21;65.04;98940.66;4974372;28;45465;-66
2023/07/28 05:15:30;;;;;;;;;4.40;4.20;;;;;22.15;65.29;98943.03;4974645;28;46488;-66
2023/07/28 05:17:56;;;;;;;;;5.00;5.00;;;;;22.08;66.20;98944.59;4974605;28;45571;-66
2023/07/28 05:20:21;;;;;;;;;5.50;5.00;;;;;22.03;66.52;98944.16;4974417;28;45360;-64
2023/07/28 05:22:47;;;;;;;;;6.50;5.00;;;;;21.99;66.95;98948.06;4974117;28;45475;-65
2023/07/28 05:25:12;;;;;;;;;4.50;4.00;;;;;21.94;67.56;98946.66;4974099;28;46579;-65
2023/07/28 05:27:38;;;;;;;;;4.00;4.00;;;;;21.88;68.47;98939.16;4973648;28;45486;-65
2023/07/28 05:30:03;;;;;;;;;7.00;5.00;;;;;21.83;69.31;98933.34;4972593;28;45419;-64
2023/07/28 05:32:29;;;;;;;;;5.00;5.00;;;;;21.76;70.26;98934.88;4974308;28;45310;-65
2023/07/28 05:34:54;;;;;;;;;6.25;6.25;;;;;21.70;70.22;98938.09;4973583;28;45802;-65
2023/07/28 05:37:20;;;;;;;;;6.00;6.00;;;;;21.61;71.13;98940.75;4972459;28;45533;-65
2023/07/28 05:39:45;;;;;;;;;4.00;4.00;;;;;21.55;70.74;98943.00;4973185;28;45458;-65
2023/07/28 05:42:10;;;;;;;;;6.00;5.00;;;;;21.49;71.13;98943.53;4973104;28;45495;-64
2023/07/28 05:44:36;;;;;;;;;6.25;6.00;;;;;21.46;71.75;98937.56;4969409;28;46956;-65
2023/07/28 05:47:01;;;;;;;;;4.50;4.25;;;;;21.42;72.39;98926.28;4971969;28;45526;-65
2023/07/28 05:49:27;;;;;;;;;6.75;5.50;;;;;21.43;72.75;98927.97;4961596;28;45983;-63
2023/07/28 05:51:52;;;;;;;;;4.50;4.50;;;;;21.42;72.86;98925.44;4968160;28;45458;-64
2023/07/28 05:54:17;;;;;;;;;7.00;7.00;;;;;21.44;72.88;98923.47;4970650;28;46212;-64
2023/07/28 05:56:43;;;;;;;;;6.00;4.50;;;;;21.43;73.01;98913.72;4972844;28;45437;-65
2023/07/28 05:59:08;;;;;;;;;5.00;4.00;;;;;21.44;73.92;98923.47;4973292;28;45431;-64
2023/07/28 06:01:34;;;;;;;;;6.00;5.00;;;;;21.47;73.67;98928.53;4971986;28;45422;-65
2023/07/28 06:03:59;;;;;;;;;5.25;4.00;;;;;21.53;73.41;98928.00;4973610;28;45530;-65
2023/07/28 06:06:26;;;;;;;;;5.25;5.00;;;;;21.55;72.31;98926.91;4973606;28;45387;-64
2023/07/28 06:08:52;;;;;;;;;6.00;6.00;;;;;21.52;72.77;98934.34;4960063;28;45380;-64
2023/07/28 06:11:17;;;;;;;;;5.25;5.25;;;;;21.46;72.40;98925.00;4972746;28;45537;-64
2023/07/28 06:13:43;;;;;;;;;4.50;4.50;;;;;21.44;70.88;98926.16;4972891;28;46434;-64
2023/07/28 06:16:09;;;;;;;;;6.60;6.60;;;;;21.43;73.24;98919.09;4973692;28;45394;-64
2023/07/28 06:18:34;;;;;;;;;11.00;8.00;;;;;21.43;73.50;98916.41;4971716;28;45384;-64
2023/07/28 06:20:59;;;;;;;;;5.00;5.00;;;;;21.42;74.68;98922.75;4972509;28;45613;-64
2023/07/28 06:23:25;;;;;;;;;6.75;6.25;;;;;21.44;73.76;98927.00;4972733;28;45405;-64
2023/07/28 06:25:50;;;;;;;;;5.75;5.75;;;;;21.43;74.57;98921.78;4973999;28;45558;-64
2023/07/28 06:28:16;;;;;;;;;8.00;7.00;;;;;21.44;74.05;98920.78;4973420;28;45597;-72
2023/07/28 06:30:41;;;;;;;;;5.75;5.75;;;;;21.42;72.83;98920.91;4973079;28;45403;-67
2023/07/28 06:33:08;;;;;;;;;7.75;4.75;;;;;21.45;73.61;98920.63;4973140;28;45500;-66
2023/07/28 06:35:34;;;;;;;;;5.00;4.00;;;;;21.49;73.17;98924.75;4972929;28;45454;-66
2023/07/28 06:38:00;;;;;;;;;5.50;5.50;;;;;21.55;73.26;98915.31;4973232;28;45508;-67
2023/07/28 06:40:25;;;;;;;;;7.40;5.80;;;;;21.63;73.06;98928.03;4973121;28;45395;-66
2023/07/28 06:42:51;;;;;;;;;7.25;6.00;;;;;21.68;73.28;98925.81;4969776;28;48083;-66
2023/07/28 06:45:17;;;;;;;;;6.25;6.00;;;;;21.74;73.34;98930.63;4971688;28;45413;-65
2023/07/28 06:47:42;;;;;;;;;5.00;5.00;;;;;21.84;73.22;98934.19;4972525;28;45578;-60
2023/07/28 06:50:08;;;;;;;;;5.00;4.00;;;;;21.95;71.78;98940.28;4970143;28;45555;-59
2023/07/28 06:52:34;;;;;;;;;4.00;3.50;;;;;21.98;71.32;98933.78;4966952;28;46168;-59
2023/07/28 06:54:59;;;;;;;;;7.00;6.00;;;;;22.08;71.42;98940.09;4966168;28;45516;-59
2023/07/28 06:57:25;;;;;;;;;6.25;5.00;;;;;22.20;72.49;98944.34;4969247;28;45794;-59
2023/07/28 06:59:50;;;;;;;;;7.00;6.00;;;;;22.30;72.37;98949.72;4968621;28;45404;-58
2023/07/28 07:02:16;;;;;;;;;9.00;7.00;;;;;22.39;71.99;98948.03;4969639;28;47225;-58
2023/07/28 07:04:41;;;;;;;;;6.00;5.25;;;;;22.49;72.05;98943.50;4971055;28;45651;-58
2023/07/28 07:07:07;;;;;;;;;5.50;5.00;;;;;22.61;71.94;98947.78;4970407;28;45628;-58
2023/07/28 07:09:32;;;;;;;;;8.25;7.00;;;;;22.71;71.99;98939.69;4970025;28;45555;-59
2023/07/28 07:11:58;;;;;;;;;6.75;6.75;;;;;22.82;71.86;98942.25;4973177;28;46381;-59
2023/07/28 07:14:23;;;;;;;;;6.00;5.00;;;;;22.92;71.22;98954.72;4974132;28;45576;-59
2023/07/28 07:16:49;;;;;;;;;8.50;7.25;;;;;23.00;70.79;98961.19;4974029;28;45553;-59
2023/07/28 07:19:15;;;;;;;;;6.25;6.25;;;;;23.06;70.72;98961.47;4973791;28;45597;-59
2023/07/28 07:21:41;;;;;;;;;3.40;3.00;;;;;23.14;70.67;98966.13;4974006;28;45458;-59
2023/07/28 07:24:07;;;;;;;;;6.00;6.00;;;;;23.18;70.36;98973.75;4973472;28;45395;-59
2023/07/28 07:26:32;;;;;;;;;6.00;6.00;;;;;23.20;70.42;98958.31;4973329;28;45427;-59
2023/07/28 07:28:58;;;;;;;;;8.50;7.00;;;;;23.23;70.23;98967.94;4973516;28;45521;-59
2023/07/28 07:31:23;;;;;;;;;7.50;7.00;;;;;23.22;69.75;98964.41;4972782;28;46673;-59
2023/07/28 07:33:49;;;;;;;;;8.25;6.75;;;;;23.22;70.01;98961.72;4973617;28;45429;-59
2023/07/28 07:36:16;;;;;;;;;8.20;8.20;;;;;23.21;70.37;98954.66;4969621;28;45593;-59
2023/07/28 07:38:42;;;;;;;;;7.00;7.00;;;;;23.21;70.97;98951.09;4968663;28;45498;-59
2023/07/28 07:41:10;;;;;;;;;7.00;7.00;;;;;23.18;71.00;98951.38;4969958;28;45495;-59
2023/07/28 07:43:36;;;;;;;;;8.00;6.20;;;;;23.16;69.86;98951.53;4969823;28;45520;-59
2023/07/28 07:46:01;;;;;;;;;10.75;8.00;;;;;23.14;70.07;98955.34;4970215;28;45559;-60
2023/07/28 07:48:27;;;;;;;;;9.00;6.50;;;;;23.15;69.74;98948.97;4970692;28;45468;-59
2023/07/28 07:50:53;;;;;;;;;9.00;8.00;;;;;23.13;69.35;98956.34;4970212;28;45713;-60
2023/07/28 07:53:18;;;;;;;;;8.00;7.00;;;;;23.14;69.28;98958.91;4964221;28;45430;-59
2023/07/28 07:55:44;;;;;;;;;2.50;2.50;;;;;23.16;68.95;98950.69;4969290;28;45812;-59
2023/07/28 07:58:09;;;;;;;;;6.00;5.75;;;;;23.18;68.59;98946.00;4969845;28;45723;-60
2023/07/28 08:00:38;;;;;;;;;6.00;6.00;;;;;23.23;68.30;98944.59;4969707;28;46019;-59
2023/07/28 08:03:04;;;;;;;;;7.60;6.80;;;;;23.24;66.67;98938.22;4969280;28;45474;-59
2023/07/28 08:05:30;;;;;;;;;9.00;7.00;;;;;23.21;67.07;98937.66;4969713;28;45558;-59
2023/07/28 08:07:55;;;;;;;;;6.50;5.00;;;;;23.19;67.42;98935.13;4969984;28;45453;-59
2023/07/28 08:10:21;;;;;;;;;9.50;8.25;;;;;23.23;67.24;98931.16;4970040;28;45813;-58
2023/07/28 08:12:47;;;;;;;;;5.25;5.25;;;;;23.29;67.21;98935.91;4966186;28;45386;-59
2023/07/28 08:15:13;;;;;;;;;11.40;6.60;;;;;23.34;67.31;98935.50;4968502;28;45529;-60
2023/07/28 08:17:38;;;;;;;;;6.25;5.25;;;;;23.41;66.34;98925.00;4969596;28;45542;-60
2023/07/28 08:20:05;;;;;;;;;6.75;4.50;;;;;23.46;65.20;98930.78;4969592;28;46080;-59
2023/07/28 08:22:30;;;;;;;;;5.60;5.20;;;;;23.52;65.57;98925.69;4967195;28;45473;-60
2023/07/28 08:24:56;;;;;;;;;5.00;5.00;;;;;23.59;65.32;98926.81;4963292;28;46013;-60
2023/07/28 08:27:21;;;;;;;;;4.50;4.00;;;;;23.66;64.68;98921.66;4969578;28;45440;-60
2023/07/28 08:29:47;;;;;;;;;5.25;5.25;;;;;23.73;63.29;98921.91;4964499;28;45494;-60
2023/07/28 08:32:12;;;;;;;;;4.50;4.25;;;;;23.78;60.66;98917.78;4962479;28;45536;-60
2023/07/28 08:34:37;;;;;;;;;4.00;4.00;;;;;23.85;60.52;98923.41;4964631;28;45503;-60
2023/07/28 08:37:03;;;;;;;;;6.00;5.00;;;;;23.93;60.63;98918.97;4962559;28;45474;-60
2023/07/28 08:39:28;;;;;;;;;4.75;4.75;;;;;24.02;59.77;98922.59;4969544;28;46579;-60
2023/07/28 08:42:04;;;;;;;;;5.00;5.00;;;;;24.15;60.04;98919.53;4966865;28;45763;-60
2023/07/28 08:44:32;;;;;;;;;5.60;5.60;;;;;24.26;59.56;98917.50;4969497;28;45606;-59
2023/07/28 08:46:57;;;;;;;;;6.20;4.80;;;;;24.35;59.53;98918.41;4969190;28;45555;-61
2023/07/28 08:49:23;;;;;;;;;7.00;7.00;;;;;24.48;59.47;98905.41;4969001;28;46170;-61
2023/07/28 08:51:50;;;;;;;;;4.25;4.25;;;;;24.66;58.57;98903.53;4969623;28;45446;-62
2023/07/28 08:54:16;;;;;;;;;6.00;4.20;;;;;24.79;58.28;98905.00;4969279;28;45478;-62
2023/07/28 08:56:43;;;;;;;;;6.50;5.25;;;;;24.91;57.52;98914.53;4967135;28;45575;-62
2023/07/28 08:59:09;;;;;;;;;4.80;4.60;;;;;24.99;57.71;98909.22;4984786;28;48353;-62
2023/07/28 09:01:39;;;;;;;;;5.00;5.00;;;;;25.10;56.33;98910.81;4968044;28;45500;-62
2023/07/28 09:04:12;;;;;;;;;4.00;4.00;;;;;25.21;56.27;98908.69;4968532;28;45510;-61
2023/07/28 09:06:38;;;;;;;;;7.80;6.00;;;;;25.35;56.33;98913.50;4968817;28;45406;-61
2023/07/28 09:09:07;;;;;;;;;6.75;4.00;;;;;25.51;55.44;98918.13;4967992;28;48299;-62
2023/07/28 09:11:33;;;;;;;;;4.40;3.00;;;;;25.63;54.88;98922.28;4967653;28;45685;-62
2023/07/28 09:14:00;;;;;;;;;4.50;4.00;;;;;25.73;54.82;98922.16;4970124;28;45493;-62
2023/07/28 09:16:26;;;;;;;;;4.20;4.20;;;;;25.77;55.09;98926.22;4969052;28;45419;-62
2023/07/28 09:19:04;;;;;;;;;5.00;5.00;;;;;25.83;53.41;98933.66;4968837;28;45529;-62
2023/07/28 09:21:30;;;;;;;;;4.40;4.40;;;;;25.87;53.86;98926.94;4969194;28;45427;-62
2023/07/28 09:23:55;;;;;;;;;4.00;4.00;;;;;25.96;54.08;98919.72;4968667;28;45465;-62
2023/07/28 09:26:21;;;;;;;;;5.00;5.00;;;;;26.07;53.96;98912.16;4967077;28;45621;-63
2023/07/28 09:28:46;;;;;;;;;6.25;4.50;;;;;26.12;52.73;98910.81;4969045;28;45691;-62
2023/07/28 09:31:12;;;;;;;;;4.00;3.75;;;;;26.13;52.34;98907.94;4968648;28;45534;-62
2023/07/28 09:33:42;;;;;;;;;4.00;4.00;;;;;26.20;52.62;98902.72;4967984;28;45552;-62
2023/07/28 09:36:15;;;;;;;;;2.80;2.80;;;;;26.26;51.65;98905.59;4969269;28;45470;-62
2023/07/28 09:38:41;;;;;;;;;3.40;3.40;;;;;26.33;51.69;98913.91;4983892;28;47642;-62
2023/07/28 09:41:10;;;;;;;;;4.00;4.00;;;;;26.40;51.15;98906.84;4968257;28;45819;-62
2023/07/28 09:43:39;;;;;;;;;4.80;4.40;;;;;26.50;52.08;98896.69;4961926;28;45546;-62
2023/07/28 09:46:07;;;;;;;;;4.80;4.60;;;;;26.60;51.68;98893.84;4968229;28;45517;-62
2023/07/28 09:48:34;;;;;;;;;3.20;3.20;;;;;26.61;50.80;98896.38;4967079;28;47854;-62
2023/07/28 09:51:14;;;;;;;;;5.00;4.00;;;;;26.60;50.79;98893.84;4969278;28;45795;-62
2023/07/28 09:53:50;;;;;;;;;5.00;4.40;;;;;26.61;50.83;98893.69;4968219;28;45550;-63
2023/07/28 09:56:18;;;;;;;;;4.80;4.80;;;;;26.66;51.42;98885.03;4966962;28;45531;-62
2023/07/28 09:58:50;;;;;;;;;5.00;4.20;;;;;26.75;51.57;98876.75;4968525;28;45426;-62
2023/07/28 10:01:16;;;;;;;;;5.60;4.20;;;;;26.83;51.69;98873.19;4967636;28;45586;-63
2023/07/28 10:03:42;;;;;;;;;3.25;3.25;;;;;26.92;51.25;98863.22;4968185;28;45453;-63
2023/07/28 10:06:08;;;;;;;;;4.60;4.60;;;;;26.93;50.44;98860.34;4968853;28;45395;-62
2023/07/28 10:08:33;;;;;;;;;5.00;4.75;;;;;26.93;50.27;98863.06;4968621;28;46576;-64
2023/07/28 10:10:59;;;;;;;;;4.25;4.25;;;;;26.96;50.11;98862.75;4969151;28;45446;-63
2023/07/28 10:13:26;;;;;;;;;4.40;4.40;;;;;27.03;50.15;98868.28;4968610;28;45446;-62
2023/07/28 10:15:52;;;;;;;;;4.60;3.60;;;;;27.15;50.24;98868.81;4969001;28;45501;-61
2023/07/28 10:18:21;;;;;;;;;4.50;3.75;;;;;27.30;49.98;98857.09;4968360;28;46388;-62
2023/07/28 10:20:49;;;;;;;;;5.20;5.20;;;;;27.49;49.78;98857.66;4967889;28;45496;-61
2023/07/28 10:23:21;;;;;;;;;5.40;5.40;;;;;27.67;49.43;98869.97;4967570;28;45423;-62
2023/07/28 10:25:57;;;;;;;;;6.80;5.80;;;;;27.83;48.63;98860.06;4969135;28;45401;-62
2023/07/28 10:28:31;;;;;;;;;4.80;4.80;;;;;27.90;48.87;98851.06;4967508;28;45509;-62
2023/07/28 10:30:58;;;;;;;;;4.80;4.80;;;;;28.02;47.87;98851.50;4955879;28;45435;-62
2023/07/28 10:33:38;;;;;;;;;4.80;3.40;;;;;28.11;47.75;98837.72;4968176;28;45564;-62
2023/07/28 10:36:32;;;;;;;;;5.20;3.80;;;;;28.31;48.04;98835.41;4968295;28;45545;-62
2023/07/28 10:39:17;;;;;;;;;4.00;4.00;;;;;28.48;48.10;98834.25;4968247;28;46325;-62
2023/07/28 10:42:05;;;;;;;;;2.60;2.60;;;;;28.62;47.14;98842.63;4965646;28;45548;-62
2023/07/28 10:44:31;;;;;;;;;1.80;1.80;;;;;28.69;47.78;98847.13;4967135;28;45488;-63
2023/07/28 10:46:56;;;;;;;;;5.25;5.00;;;;;28.77;47.73;98836.19;4970873;28;45514;-62
2023/07/28 10:49:24;;;;;;;;;3.00;3.00;;;;;28.86;47.07;98833.41;4970234;28;46561;-63
2023/07/28 10:51:49;;;;;;;;;4.20;4.20;;;;;28.95;47.15;98833.16;4967631;28;45379;-63
2023/07/28 10:54:17;;;;;;;;;3.50;3.50;;;;;28.98;47.43;98835.53;4971396;28;45742;-63
2023/07/28 10:56:43;;;;;;;;;3.60;3.60;;;;;28.92;46.37;98838.13;4970469;28;45627;-63
2023/07/28 10:59:08;;;;;;;;;4.00;4.00;;;;;28.87;45.98;98824.25;4971253;28;45450;-63
2023/07/28 11:01:35;;;;;;;;;5.00;5.00;;;;;28.87;46.84;98822.38;4969048;28;45449;-63
2023/07/28 11:04:14;;;;;;;;;4.60;4.60;;;;;28.84;47.17;98822.75;4971731;28;45584;-63
2023/07/28 11:06:48;;;;;;;;;4.40;3.40;;;;;28.85;46.23;98820.88;4971777;28;45441;-63
2023/07/28 11:09:15;;;;;;;;;1.00;0.80;;;;;28.78;46.78;98824.31;4971745;28;45526;-63
2023/07/28 11:11:42;;;;;;;;;3.80;3.60;;;;;28.72;45.10;98814.19;4971543;28;45431;-63
2023/07/28 11:14:08;;;;;;;;;6.40;2.60;;;;;28.69;45.55;98811.84;4971674;28;45507;-63
2023/07/28 11:16:37;;;;;;;;;4.40;3.40;;;;;28.69;45.16;98809.13;4971704;28;45531;-63
2023/07/28 11:19:07;;;;;;;;;3.00;3.00;;;;;28.67;45.32;98800.31;4971462;28;46746;-57
2023/07/28 11:21:37;;;;;;;;;4.00;4.00;;;;;28.61;45.08;98802.94;4971754;28;45498;-57
2023/07/28 11:24:03;;;;;;;;;3.00;3.00;;;;;28.58;45.52;98803.31;4972093;28;45506;-57
2023/07/28 11:26:28;;;;;;;;;4.50;3.75;;;;;28.60;45.51;98807.53;4971176;28;45491;-57
2023/07/28 11:28:54;;;;;;;;;3.25;3.25;;;;;28.63;45.69;98809.88;4971639;28;46265;-58
2023/07/28 11:31:25;;;;;;;;;4.75;3.50;;;;;28.66;45.48;98800.50;4971086;28;45476;-57